createdAt,value
2018-01-01T00:04:21.255Z,983.37
2018-01-01T00:14:50.305Z,983.48
2018-01-01T00:25:19.834Z,983.74
2018-01-01T00:35:48.360Z,984.04
2018-01-01T00:46:17.346Z,983.97
2018-01-01T00:56:46.822Z,983.85
2018-01-01T01:07:15.210Z,983.65
2018-01-01T01:17:44.145Z,983.97
2018-01-01T01:28:14.067Z,984.09
2018-01-01T01:38:41.998Z,984.37
2018-01-01T01:49:10.948Z,984.90
2018-01-01T01:59:39.848Z,984.08
2018-01-01T02:10:08.777Z,985.02
2018-01-01T02:20:37.721Z,985.35
2018-01-01T02:31:06.640Z,985.22
2018-01-01T02:41:35.536Z,985.26
2018-01-01T02:52:04.391Z,985.35
2018-01-01T03:02:33.158Z,985.42
2018-01-01T03:13:01.856Z,985.54
2018-01-01T03:23:30.728Z,985.24
2018-01-01T03:33:59.226Z,984.88
2018-01-01T03:44:27.851Z,984.90
2018-01-01T03:54:56.524Z,985.40
2018-01-01T04:05:25.106Z,985.19
2018-01-01T04:15:53.609Z,986.45
2018-01-01T04:26:22.037Z,987.51
2018-01-01T04:36:50.394Z,986.57
2018-01-01T04:47:19.673Z,986.73
2018-01-01T04:57:46.833Z,986.40
2018-01-01T05:08:15.090Z,986.28
2018-01-01T05:18:42.937Z,985.46
2018-01-01T05:29:10.982Z,986.94
2018-01-01T05:39:39.004Z,986.14
2018-01-01T05:50:06.980Z,985.38
2018-01-01T06:00:35.015Z,987.06
2018-01-01T06:11:03.038Z,987.85
2018-01-01T06:21:31.051Z,986.45
2018-01-01T06:31:59.074Z,986.17
2018-01-01T06:42:27.158Z,987.24
2018-01-01T06:52:55.251Z,987.14
2018-01-01T07:03:23.389Z,987.53
2018-01-01T07:13:51.534Z,987.75
2018-01-01T07:24:19.674Z,987.90
2018-01-01T07:34:47.776Z,988.68
2018-01-01T07:45:16.285Z,988.06
2018-01-01T07:55:43.832Z,987.94
2018-01-01T08:06:11.845Z,987.62
2018-01-01T08:16:39.879Z,989.02
2018-01-01T08:27:07.929Z,987.18
2018-01-01T08:37:36.170Z,987.73
2018-01-01T08:48:04.540Z,988.03
2018-01-01T08:58:32.804Z,988.41
2018-01-01T09:09:01.089Z,988.16
2018-01-01T09:19:29.660Z,988.95
2018-01-01T09:29:57.963Z,989.07
2018-01-01T09:40:26.321Z,988.22
2018-01-01T09:50:54.460Z,987.40
2018-01-01T10:01:22.800Z,988.28
2018-01-01T10:11:51.123Z,988.83
2018-01-01T10:22:20.152Z,986.28
2018-01-01T10:23:25.848Z,987.74
2018-01-01T10:24:32.524Z,987.76
2018-01-01T10:25:39.719Z,987.70
2018-01-01T10:26:44.436Z,987.86
2018-01-01T10:37:13.727Z,988.72
2018-01-01T10:47:41.803Z,988.28
2018-01-01T10:58:10.779Z,988.25
2018-01-01T11:08:39.287Z,987.37
2018-01-01T11:19:07.343Z,986.13
2018-01-01T11:29:36.025Z,985.53
2018-01-01T11:40:05.358Z,987.40
2018-01-01T11:50:34.409Z,987.55
2018-01-01T12:01:02.860Z,986.68
2018-01-01T12:11:31.472Z,987.51
2018-01-01T12:22:00.221Z,987.19
2018-01-01T12:32:28.790Z,984.84
2018-01-01T12:42:57.402Z,985.65
2018-01-01T12:53:25.962Z,985.45
2018-01-01T13:03:54.542Z,984.28
2018-01-01T13:14:23.328Z,985.21
2018-01-01T13:24:51.659Z,985.75
2018-01-01T13:35:20.359Z,984.20
2018-01-01T13:45:48.997Z,984.61
2018-01-01T13:56:17.585Z,984.23
2018-01-01T14:06:46.157Z,984.32
2018-01-01T14:17:14.682Z,984.03
2018-01-01T14:27:43.177Z,983.43
2018-01-01T14:38:12.474Z,982.93
2018-01-01T14:48:40.650Z,983.49
2018-01-01T15:00:21.869Z,971.94
2018-01-01T15:10:49.059Z,982.71
2018-01-01T15:21:16.785Z,982.73
2018-01-01T15:31:44.977Z,982.09
2018-01-01T15:42:13.181Z,982.00
2018-01-01T15:52:41.373Z,981.80
2018-01-01T16:03:09.548Z,981.55
2018-01-01T16:13:37.660Z,981.37
2018-01-01T16:24:05.745Z,981.35
2018-01-01T16:34:33.815Z,980.75
2018-01-01T16:45:01.897Z,981.08
2018-01-01T16:55:30.402Z,981.13
2018-01-01T17:05:57.905Z,980.90
2018-01-01T17:16:25.872Z,980.57
2018-01-01T17:26:53.840Z,980.20
2018-01-01T17:37:21.794Z,980.13
2018-01-01T17:47:49.736Z,980.14
2018-01-01T17:58:17.677Z,980.06
2018-01-01T18:08:45.618Z,979.62
2018-01-01T18:19:13.601Z,979.57
2018-01-01T18:29:41.491Z,979.35
2018-01-01T18:40:09.357Z,979.27
2018-01-01T18:50:37.268Z,979.30
2018-01-01T19:01:05.181Z,978.82
2018-01-01T19:11:33.095Z,978.97
2018-01-01T19:22:01.528Z,978.82
2018-01-01T19:32:28.976Z,978.74
2018-01-01T19:42:56.906Z,978.76
2018-01-01T19:53:24.819Z,978.67
2018-01-01T20:03:52.762Z,978.61
2018-01-01T20:14:20.702Z,978.52
2018-01-01T20:24:48.664Z,978.52
2018-01-01T20:35:16.638Z,978.72
2018-01-01T20:45:44.570Z,978.78
2018-01-01T20:56:12.594Z,978.83
2018-01-01T21:06:40.500Z,978.94
2018-01-01T21:17:08.486Z,979.00
2018-01-01T21:27:36.954Z,978.80
2018-01-01T21:38:04.949Z,979.10
2018-01-01T21:48:32.460Z,979.25
2018-01-01T21:59:00.483Z,979.62
2018-01-01T22:09:28.483Z,979.76
2018-01-01T22:19:56.493Z,979.90
2018-01-01T22:30:24.517Z,980.30
2018-01-01T22:40:52.526Z,980.47
2018-01-01T22:51:22.200Z,980.84
2018-01-01T23:01:49.059Z,981.30
2018-01-01T23:12:17.015Z,981.39
2018-01-01T23:22:44.462Z,981.50
2018-01-01T23:33:12.376Z,982.10
2018-01-01T23:43:40.784Z,982.09
2018-01-01T23:54:08.693Z,982.65
